createdAt,value
2023-06-11T00:00:49.360Z,17.40
2023-06-11T00:03:22.571Z,17.40
2023-06-11T00:05:49.694Z,17.40
2023-06-11T00:08:16.626Z,17.30
2023-06-11T00:10:43.497Z,17.30
2023-06-11T00:13:10.383Z,17.30
2023-06-11T00:15:37.246Z,17.30
2023-06-11T00:18:04.335Z,17.30
2023-06-11T00:20:33.920Z,17.20
2023-06-11T00:23:00.865Z,17.10
2023-06-11T00:25:27.713Z,17.00
2023-06-11T00:27:54.562Z,16.80
2023-06-11T00:30:21.630Z,16.90
2023-06-11T00:32:48.533Z,16.80
2023-06-11T00:35:15.556Z,16.80
2023-06-11T00:37:43.227Z,16.80
2023-06-11T00:40:10.484Z,16.70
2023-06-11T00:42:38.362Z,16.70
2023-06-11T00:45:07.355Z,16.60
2023-06-11T00:47:36.437Z,16.60
2023-06-11T00:50:05.185Z,16.50
2023-06-11T00:52:32.078Z,16.40
2023-06-11T00:54:59.982Z,16.40
2023-06-11T00:57:27.244Z,16.40
2023-06-11T00:59:55.831Z,16.30
2023-06-11T01:02:41.333Z,16.10
2023-06-11T01:05:10.579Z,16.20
2023-06-11T01:07:42.563Z,16.20
2023-06-11T01:10:10.140Z,16.20
2023-06-11T01:12:36.985Z,16.20
2023-06-11T01:15:04.155Z,16.20
2023-06-11T01:17:41.845Z,16.30
2023-06-11T01:20:36.149Z,16.20
2023-06-11T01:23:19.030Z,16.10
2023-06-11T01:26:16.943Z,16.10
2023-06-11T01:28:47.602Z,16.00
2023-06-11T01:31:16.799Z,16.00
2023-06-11T01:33:44.607Z,16.00
2023-06-11T01:36:12.156Z,16.00
2023-06-11T01:38:45.937Z,16.00
2023-06-11T01:41:13.380Z,15.90
2023-06-11T01:43:40.671Z,15.90
2023-06-11T01:46:08.301Z,16.00
2023-06-11T01:48:35.211Z,15.90
2023-06-11T01:51:02.180Z,15.90
2023-06-11T01:53:29.016Z,15.80
2023-06-11T01:55:59.424Z,15.80
2023-06-11T01:58:26.305Z,15.70
2023-06-11T02:00:54.391Z,15.80
2023-06-11T02:03:21.719Z,15.80
2023-06-11T02:05:48.887Z,15.80
2023-06-11T02:08:15.873Z,15.80
2023-06-11T02:10:45.024Z,15.80
2023-06-11T02:13:11.891Z,15.80
2023-06-11T02:15:38.839Z,15.80
2023-06-11T02:18:06.020Z,15.70
2023-06-11T02:20:32.888Z,15.70
2023-06-11T02:22:59.767Z,15.70
2023-06-11T02:25:26.690Z,15.70
2023-06-11T02:27:53.522Z,15.80
2023-06-11T02:30:20.498Z,15.70
2023-06-11T02:32:47.461Z,15.50
2023-06-11T02:35:14.440Z,15.60
2023-06-11T02:37:41.337Z,15.60
2023-06-11T02:40:08.928Z,15.50
2023-06-11T02:42:36.122Z,15.50
2023-06-11T02:45:03.058Z,15.50
2023-06-11T02:47:30.834Z,15.50
2023-06-11T02:49:57.907Z,15.40
2023-06-11T02:52:24.811Z,15.50
2023-06-11T02:54:51.955Z,15.40
2023-06-11T02:57:18.828Z,15.40
2023-06-11T02:59:45.679Z,15.40
2023-06-11T03:02:12.498Z,15.30
2023-06-11T03:04:39.320Z,15.20
2023-06-11T03:07:06.254Z,15.20
2023-06-11T03:09:33.096Z,15.20
2023-06-11T03:11:59.914Z,15.20
2023-06-11T03:14:27.375Z,15.20
2023-06-11T03:16:54.351Z,15.20
2023-06-11T03:19:21.241Z,15.30
2023-06-11T03:21:48.554Z,15.30
2023-06-11T03:24:16.130Z,15.20
2023-06-11T03:26:42.955Z,15.20
2023-06-11T03:29:09.824Z,15.20
2023-06-11T03:31:38.469Z,15.10
2023-06-11T03:34:05.470Z,15.10
2023-06-11T03:36:32.294Z,15.10
2023-06-11T03:38:59.185Z,14.90
2023-06-11T03:41:27.114Z,15.00
2023-06-11T03:43:53.959Z,14.90
2023-06-11T03:46:22.492Z,14.90
2023-06-11T03:48:49.378Z,14.90
2023-06-11T03:51:16.936Z,14.90
2023-06-11T03:53:43.813Z,15.00
2023-06-11T03:56:10.630Z,15.00
2023-06-11T03:58:37.443Z,15.00
2023-06-11T04:01:04.324Z,15.10
2023-06-11T04:03:31.297Z,15.00
2023-06-11T04:05:58.197Z,15.00
2023-06-11T04:08:25.389Z,14.90
2023-06-11T04:10:52.314Z,14.90
2023-06-11T04:13:19.215Z,15.00
2023-06-11T04:15:46.116Z,15.00
2023-06-11T04:18:13.323Z,15.10
2023-06-11T04:20:40.366Z,14.90
2023-06-11T04:23:07.834Z,14.70
2023-06-11T04:25:37.449Z,14.60
2023-06-11T04:28:04.584Z,14.80
2023-06-11T04:30:32.671Z,14.70
2023-06-11T04:32:59.618Z,14.70
2023-06-11T04:35:26.504Z,14.70
2023-06-11T04:37:54.004Z,14.60
2023-06-11T04:40:21.528Z,14.70
2023-06-11T04:42:49.479Z,14.70
2023-06-11T04:45:20.242Z,14.80
2023-06-11T04:47:47.783Z,14.80
2023-06-11T04:50:22.251Z,14.80
2023-06-11T04:52:52.739Z,14.70
2023-06-11T04:55:22.729Z,14.70
2023-06-11T04:57:51.058Z,14.80
2023-06-11T05:00:18.478Z,14.70
2023-06-11T05:02:45.939Z,14.70
2023-06-11T05:05:14.338Z,14.70
2023-06-11T05:07:42.897Z,14.70
2023-06-11T05:10:10.138Z,14.70
2023-06-11T05:12:37.081Z,14.50
2023-06-11T05:15:04.208Z,14.60
2023-06-11T05:17:31.178Z,14.60
2023-06-11T05:19:58.007Z,14.60
2023-06-11T05:22:24.913Z,14.50
2023-06-11T05:24:51.828Z,14.40
2023-06-11T05:27:18.731Z,14.40
2023-06-11T05:29:46.495Z,14.50
2023-06-11T05:32:16.068Z,14.50
2023-06-11T05:34:44.333Z,14.40
2023-06-11T05:37:11.374Z,14.30
2023-06-11T05:39:38.352Z,14.40
2023-06-11T05:42:05.443Z,14.40
2023-06-11T05:44:32.285Z,14.50
2023-06-11T05:46:59.503Z,14.40
2023-06-11T05:49:26.384Z,14.40
2023-06-11T05:51:53.430Z,14.30
2023-06-11T05:54:20.841Z,14.40
2023-06-11T05:56:47.722Z,14.50
2023-06-11T05:59:14.598Z,14.50
2023-06-11T06:01:46.488Z,14.30
2023-06-11T06:04:15.943Z,14.20
2023-06-11T06:06:44.002Z,14.10
2023-06-11T06:09:11.217Z,14.10
2023-06-11T06:11:38.224Z,14.20
2023-06-11T06:14:05.171Z,14.30
2023-06-11T06:16:32.896Z,14.50
2023-06-11T06:19:00.092Z,14.40
2023-06-11T06:21:27.050Z,14.20
2023-06-11T06:23:53.974Z,14.20
2023-06-11T06:26:21.452Z,14.00
2023-06-11T06:28:48.280Z,14.00
2023-06-11T06:31:15.400Z,13.90
2023-06-11T06:33:42.275Z,13.90
2023-06-11T06:36:09.224Z,14.00
2023-06-11T06:38:37.552Z,13.90
2023-06-11T06:41:04.645Z,13.80
2023-06-11T06:43:31.505Z,13.70
2023-06-11T06:45:58.574Z,13.70
2023-06-11T06:48:26.337Z,13.60
2023-06-11T06:50:53.333Z,13.60
2023-06-11T06:53:20.199Z,13.70
2023-06-11T06:55:47.669Z,13.60
2023-06-11T06:58:15.412Z,13.60
2023-06-11T07:00:42.313Z,13.50
2023-06-11T07:03:10.387Z,13.50
2023-06-11T07:05:37.363Z,13.40
2023-06-11T07:08:04.444Z,13.60
2023-06-11T07:10:31.509Z,13.50
2023-06-11T07:13:00.576Z,13.50
2023-06-11T07:15:27.857Z,13.40
2023-06-11T07:17:54.748Z,13.50
2023-06-11T07:20:21.724Z,13.40
2023-06-11T07:22:48.618Z,13.40
2023-06-11T07:25:16.602Z,13.20
2023-06-11T07:27:44.154Z,13.20
2023-06-11T07:30:12.256Z,13.10
2023-06-11T07:32:39.488Z,13.20
2023-06-11T07:35:06.464Z,13.10
2023-06-11T07:37:33.359Z,13.30
2023-06-11T07:40:00.243Z,13.20
2023-06-11T07:42:27.063Z,13.20
2023-06-11T07:44:53.959Z,13.20
2023-06-11T07:47:20.820Z,13.00
2023-06-11T07:49:47.897Z,13.00
2023-06-11T07:52:14.824Z,13.00
2023-06-11T07:54:42.693Z,13.00
2023-06-11T07:57:10.979Z,12.90
2023-06-11T07:59:38.180Z,12.80
2023-06-11T08:02:05.986Z,12.70
2023-06-11T08:04:33.421Z,12.70
2023-06-11T08:07:00.324Z,12.70
2023-06-11T08:09:29.985Z,12.70
2023-06-11T08:11:57.745Z,12.60
2023-06-11T08:14:24.587Z,12.70
2023-06-11T08:16:51.684Z,12.80
2023-06-11T08:19:18.619Z,12.90
2023-06-11T08:21:47.990Z,12.90
2023-06-11T08:24:14.921Z,12.90
2023-06-11T08:26:41.740Z,12.90
2023-06-11T08:29:08.592Z,12.90
2023-06-11T08:31:35.451Z,13.00
2023-06-11T08:34:02.391Z,12.90
2023-06-11T08:36:29.341Z,13.00
2023-06-11T08:38:56.288Z,13.00
2023-06-11T08:41:24.306Z,13.00
2023-06-11T08:43:51.609Z,13.00
2023-06-11T08:46:23.001Z,13.00
2023-06-11T08:49:05.357Z,13.00
2023-06-11T08:51:39.353Z,13.10
2023-06-11T08:54:10.640Z,13.10
2023-06-11T08:56:37.763Z,13.10
2023-06-11T08:59:04.678Z,13.00
2023-06-11T09:01:32.825Z,13.00
2023-06-11T09:04:00.893Z,13.10
2023-06-11T09:06:29.284Z,13.20
2023-06-11T09:09:00.399Z,13.30
2023-06-11T09:11:35.162Z,13.30
2023-06-11T09:14:03.488Z,13.20
2023-06-11T09:16:38.251Z,13.00
2023-06-11T09:19:05.159Z,13.00
2023-06-11T09:21:32.116Z,12.90
2023-06-11T09:24:11.653Z,13.00
2023-06-11T09:26:38.555Z,13.10
2023-06-11T09:29:08.179Z,13.10
2023-06-11T09:31:35.118Z,13.10
2023-06-11T09:34:07.368Z,13.00
2023-06-11T09:36:34.698Z,13.00
2023-06-11T09:39:01.701Z,12.90
2023-06-11T09:41:29.645Z,12.80
2023-06-11T09:43:57.245Z,12.70
2023-06-11T09:46:24.879Z,12.70
2023-06-11T09:48:51.884Z,12.70
2023-06-11T09:51:22.779Z,12.60
2023-06-11T09:53:52.718Z,12.60
2023-06-11T09:56:20.424Z,12.70
2023-06-11T09:58:49.772Z,12.70
2023-06-11T10:01:17.697Z,12.60
2023-06-11T10:03:45.053Z,12.70
2023-06-11T10:06:17.715Z,12.60
2023-06-11T10:08:49.868Z,12.60
2023-06-11T10:11:20.711Z,12.50
2023-06-11T10:14:01.110Z,12.40
2023-06-11T10:16:28.988Z,12.50
2023-06-11T10:19:09.933Z,12.60
2023-06-11T10:21:51.623Z,12.70
2023-06-11T10:24:23.768Z,12.60
2023-06-11T10:27:09.851Z,12.60
2023-06-11T10:29:50.472Z,12.70
2023-06-11T10:32:22.886Z,12.80
2023-06-11T10:34:56.969Z,12.80
2023-06-11T10:37:29.882Z,12.70
2023-06-11T10:39:56.862Z,12.60
2023-06-11T10:42:28.275Z,12.40
2023-06-11T10:44:59.429Z,12.40
2023-06-11T10:47:28.203Z,12.30
2023-06-11T10:50:09.406Z,12.30
2023-06-11T10:52:54.998Z,12.40
2023-06-11T10:55:23.359Z,12.50
2023-06-11T10:57:54.514Z,12.40
2023-06-11T11:00:22.820Z,12.40
2023-06-11T11:02:51.830Z,12.30
2023-06-11T11:05:18.877Z,12.30
2023-06-11T11:07:47.034Z,12.20
2023-06-11T11:10:20.244Z,12.10
2023-06-11T11:12:49.033Z,12.30
2023-06-11T11:15:16.456Z,12.30
2023-06-11T11:17:45.180Z,12.20
2023-06-11T11:20:20.583Z,12.20
2023-06-11T11:22:55.430Z,12.30
2023-06-11T11:25:31.234Z,12.20
2023-06-11T11:27:58.602Z,12.20
2023-06-11T11:30:26.176Z,12.20
2023-06-11T11:32:53.982Z,12.20
2023-06-11T11:35:22.617Z,12.20
2023-06-11T11:37:52.147Z,12.30
2023-06-11T11:40:23.041Z,12.30
2023-06-11T11:42:51.001Z,12.30
2023-06-11T11:45:19.166Z,12.30
2023-06-11T11:47:53.773Z,12.30
2023-06-11T11:50:22.740Z,12.20
2023-06-11T11:53:10.235Z,12.10
2023-06-11T11:55:52.393Z,12.10
2023-06-11T11:58:27.949Z,12.00
2023-06-11T12:00:57.711Z,12.00
2023-06-11T12:03:25.165Z,12.00
2023-06-11T12:06:08.553Z,12.00
2023-06-11T12:08:36.845Z,12.00
2023-06-11T12:11:07.553Z,12.00
2023-06-11T12:13:34.994Z,12.00
2023-06-11T12:16:04.545Z,12.00
2023-06-11T12:18:32.970Z,12.00
2023-06-11T12:20:59.863Z,12.00
2023-06-11T12:23:27.118Z,12.10
2023-06-11T12:25:53.967Z,12.10
2023-06-11T12:28:20.885Z,12.10
2023-06-11T12:30:47.760Z,12.10
2023-06-11T12:33:16.405Z,12.10
2023-06-11T12:35:44.411Z,12.30
2023-06-11T12:38:11.648Z,12.30
2023-06-11T12:40:38.531Z,12.30
2023-06-11T12:43:05.491Z,12.20
2023-06-11T12:45:36.632Z,12.30
2023-06-11T12:48:03.871Z,12.40
2023-06-11T12:50:30.819Z,12.40
2023-06-11T12:52:57.952Z,12.40
2023-06-11T12:55:25.780Z,12.40
2023-06-11T12:57:52.907Z,12.40
2023-06-11T13:00:20.124Z,12.40
2023-06-11T13:02:47.301Z,12.40
2023-06-11T13:05:14.363Z,12.50
2023-06-11T13:07:41.300Z,12.40
2023-06-11T13:10:09.035Z,12.50
2023-06-11T13:12:36.425Z,12.50
2023-06-11T13:15:03.416Z,12.40
2023-06-11T13:17:30.403Z,12.40
2023-06-11T13:19:57.423Z,12.50
2023-06-11T13:22:24.377Z,12.50
2023-06-11T13:24:51.408Z,12.50
2023-06-11T13:27:18.296Z,12.50
2023-06-11T13:29:45.156Z,12.40
2023-06-11T13:32:12.297Z,12.40
2023-06-11T13:34:39.484Z,12.50
2023-06-11T13:37:06.798Z,12.40
2023-06-11T13:39:34.253Z,12.40
2023-06-11T13:42:01.586Z,12.40
2023-06-11T13:44:28.466Z,12.40
2023-06-11T13:46:55.426Z,12.40
2023-06-11T13:49:23.410Z,12.40
2023-06-11T13:51:51.844Z,12.40
2023-06-11T13:54:18.748Z,12.40
2023-06-11T13:56:48.865Z,12.30
2023-06-11T13:59:15.771Z,12.30
2023-06-11T14:01:43.266Z,12.40
2023-06-11T14:04:10.997Z,12.40
2023-06-11T14:06:38.097Z,12.40
2023-06-11T14:09:05.419Z,12.40
2023-06-11T14:11:32.589Z,12.50
2023-06-11T14:14:00.303Z,12.40
2023-06-11T14:16:27.930Z,12.40
2023-06-11T14:18:54.881Z,12.50
2023-06-11T14:21:21.714Z,12.50
2023-06-11T14:23:48.538Z,12.40
2023-06-11T14:26:15.843Z,12.40
2023-06-11T14:28:42.675Z,12.30
2023-06-11T14:31:09.683Z,12.40
2023-06-11T14:33:36.579Z,12.40
2023-06-11T14:36:06.252Z,12.30
2023-06-11T14:38:34.135Z,12.30
2023-06-11T14:41:01.140Z,12.30
2023-06-11T14:43:28.080Z,12.30
2023-06-11T14:45:55.236Z,12.40
2023-06-11T14:48:22.301Z,12.40
2023-06-11T14:50:49.355Z,12.40
2023-06-11T14:53:16.174Z,12.50
2023-06-11T14:55:44.092Z,12.40
2023-06-11T14:58:11.123Z,12.40
2023-06-11T15:00:37.938Z,12.30
2023-06-11T15:03:04.847Z,12.40
2023-06-11T15:05:31.729Z,12.30
2023-06-11T15:07:58.596Z,12.30
2023-06-11T15:10:25.577Z,12.30
2023-06-11T15:12:53.485Z,12.30
2023-06-11T15:15:20.438Z,12.30
2023-06-11T15:17:47.807Z,12.20
2023-06-11T15:20:15.208Z,12.20
2023-06-11T15:22:43.188Z,12.10
2023-06-11T15:25:10.738Z,12.20
2023-06-11T15:27:37.910Z,12.30
2023-06-11T15:30:05.401Z,12.50
2023-06-11T15:32:32.413Z,12.40
2023-06-11T15:34:59.538Z,12.20
2023-06-11T15:37:26.365Z,12.20
2023-06-11T15:39:53.437Z,12.10
2023-06-11T15:42:20.717Z,12.00
2023-06-11T15:44:49.698Z,12.00
2023-06-11T15:47:17.397Z,11.90
2023-06-11T15:49:44.341Z,11.90
2023-06-11T15:52:11.295Z,11.90
2023-06-11T15:54:38.257Z,11.80
2023-06-11T15:57:05.561Z,11.80
2023-06-11T15:59:32.634Z,11.80
2023-06-11T16:01:59.936Z,11.90
2023-06-11T16:04:27.101Z,11.70
2023-06-11T16:06:54.007Z,11.80
2023-06-11T16:09:20.868Z,11.70
2023-06-11T16:11:47.679Z,11.80
2023-06-11T16:14:15.957Z,11.70
2023-06-11T16:16:43.563Z,11.60
2023-06-11T16:19:10.539Z,11.70
2023-06-11T16:21:38.142Z,11.60
2023-06-11T16:24:05.958Z,11.70
2023-06-11T16:26:33.218Z,11.70
2023-06-11T16:29:00.426Z,11.80
2023-06-11T16:31:27.496Z,11.70
2023-06-11T16:33:58.774Z,11.70
2023-06-11T16:36:27.117Z,11.70
2023-06-11T16:38:54.113Z,11.60
2023-06-11T16:41:22.645Z,11.60
2023-06-11T16:43:53.175Z,11.50
2023-06-11T16:46:20.315Z,11.50
2023-06-11T16:48:47.510Z,11.60
2023-06-11T16:51:14.744Z,11.50
2023-06-11T16:53:41.654Z,11.50
2023-06-11T16:56:08.498Z,11.40
2023-06-11T16:58:35.682Z,11.30
2023-06-11T17:01:02.894Z,11.30
2023-06-11T17:03:29.868Z,11.30
2023-06-11T17:05:56.833Z,11.30
2023-06-11T17:08:23.676Z,11.40
2023-06-11T17:10:50.628Z,11.40
2023-06-11T17:13:17.455Z,11.40
2023-06-11T17:15:44.287Z,11.40
2023-06-11T17:18:11.216Z,11.40
2023-06-11T17:20:40.679Z,11.30
2023-06-11T17:23:08.544Z,11.20
2023-06-11T17:25:35.755Z,11.30
2023-06-11T17:28:02.844Z,11.30
2023-06-11T17:30:30.030Z,11.20
2023-06-11T17:32:56.928Z,11.20
2023-06-11T17:35:23.943Z,11.20
2023-06-11T17:37:50.846Z,11.10
2023-06-11T17:40:17.977Z,11.10
2023-06-11T17:42:46.276Z,11.10
2023-06-11T17:45:13.371Z,11.10
2023-06-11T17:47:40.831Z,11.10
2023-06-11T17:50:08.587Z,11.10
2023-06-11T17:52:35.775Z,11.10
2023-06-11T17:55:02.621Z,11.00
2023-06-11T17:57:29.426Z,11.10
2023-06-11T17:59:56.253Z,11.00
2023-06-11T18:02:23.086Z,10.90
2023-06-11T18:04:49.949Z,11.00
2023-06-11T18:07:16.782Z,10.90
2023-06-11T18:09:43.636Z,10.90
2023-06-11T18:12:10.643Z,10.90
2023-06-11T18:14:37.510Z,10.90
2023-06-11T18:17:04.633Z,11.00
2023-06-11T18:19:31.453Z,11.00
2023-06-11T18:21:58.341Z,10.90
2023-06-11T18:24:29.476Z,11.00
2023-06-11T18:26:56.504Z,11.00
2023-06-11T18:29:24.621Z,10.90
2023-06-11T18:31:53.406Z,11.00
2023-06-11T18:34:20.421Z,11.10
2023-06-11T18:36:47.619Z,10.90
2023-06-11T18:39:14.505Z,10.90
2023-06-11T18:41:41.373Z,10.80
2023-06-11T18:44:08.305Z,10.90
2023-06-11T18:46:37.103Z,10.80
2023-06-11T18:49:06.801Z,10.90
2023-06-11T18:51:33.705Z,10.90
2023-06-11T18:54:02.842Z,10.80
2023-06-11T18:56:29.929Z,10.90
2023-06-11T18:58:56.814Z,10.90
2023-06-11T19:01:23.866Z,10.80
2023-06-11T19:03:50.859Z,10.80
2023-06-11T19:06:18.024Z,10.90
2023-06-11T19:08:45.148Z,10.90
2023-06-11T19:11:11.973Z,11.00
2023-06-11T19:13:41.367Z,11.10
2023-06-11T19:16:08.228Z,11.00
2023-06-11T19:18:35.172Z,11.00
2023-06-11T19:21:02.127Z,11.00
2023-06-11T19:23:29.083Z,11.00
2023-06-11T19:25:56.938Z,10.90
2023-06-11T19:28:23.888Z,10.90
2023-06-11T19:30:50.861Z,10.90
2023-06-11T19:33:17.682Z,10.90
2023-06-11T19:35:44.553Z,11.00
2023-06-11T19:38:11.499Z,10.80
2023-06-11T19:40:38.306Z,10.90
2023-06-11T19:43:05.335Z,10.90
2023-06-11T19:45:32.157Z,11.00
2023-06-11T19:47:59.716Z,10.80
2023-06-11T19:50:27.501Z,10.90
2023-06-11T19:52:54.539Z,10.80
2023-06-11T19:55:21.502Z,10.90
2023-06-11T19:57:48.407Z,10.90
2023-06-11T20:00:16.331Z,10.90
2023-06-11T20:02:43.219Z,11.00
2023-06-11T20:05:10.367Z,11.00
2023-06-11T20:07:37.236Z,10.90
2023-06-11T20:10:04.341Z,10.90
2023-06-11T20:12:31.230Z,10.90
2023-06-11T20:14:58.086Z,10.80
2023-06-11T20:17:25.025Z,10.80
2023-06-11T20:19:51.903Z,10.80
2023-06-11T20:22:18.782Z,10.80
2023-06-11T20:24:45.932Z,10.90
2023-06-11T20:27:12.831Z,11.00
2023-06-11T20:29:39.651Z,10.90
2023-06-11T20:32:09.962Z,10.90
2023-06-11T20:34:38.600Z,10.80
2023-06-11T20:37:05.921Z,10.70
2023-06-11T20:39:32.862Z,10.70
2023-06-11T20:41:59.690Z,10.80
2023-06-11T20:44:26.542Z,10.80
2023-06-11T20:46:53.402Z,10.90
2023-06-11T20:49:20.352Z,10.90
2023-06-11T20:51:47.275Z,10.80
2023-06-11T20:54:14.653Z,10.80
2023-06-11T20:56:41.595Z,10.80
2023-06-11T20:59:10.825Z,10.80
2023-06-11T21:01:38.038Z,10.90
2023-06-11T21:04:05.339Z,10.90
2023-06-11T21:06:32.228Z,10.90
2023-06-11T21:08:59.169Z,10.80
2023-06-11T21:11:27.639Z,10.80
2023-06-11T21:14:12.163Z,10.80
2023-06-11T21:16:40.356Z,10.80
2023-06-11T21:19:07.304Z,10.90
2023-06-11T21:21:34.568Z,10.80
2023-06-11T21:24:03.331Z,10.90
2023-06-11T21:26:30.430Z,10.90
2023-06-11T21:28:58.125Z,10.70
2023-06-11T21:31:25.097Z,10.70
2023-06-11T21:33:51.935Z,10.70
2023-06-11T21:36:18.835Z,10.80
2023-06-11T21:38:45.749Z,10.90
2023-06-11T21:41:12.547Z,10.80
2023-06-11T21:43:39.354Z,10.90
2023-06-11T21:46:06.223Z,10.90
2023-06-11T21:48:33.043Z,10.90
2023-06-11T21:50:59.916Z,10.90
2023-06-11T21:53:26.768Z,10.90
2023-06-11T21:55:53.598Z,10.90
2023-06-11T21:58:20.431Z,11.00
2023-06-11T22:00:47.384Z,11.00
2023-06-11T22:03:18.102Z,11.00
2023-06-11T22:05:45.900Z,11.00
2023-06-11T22:08:14.441Z,11.00
2023-06-11T22:10:41.450Z,11.00
2023-06-11T22:13:08.392Z,10.90
2023-06-11T22:15:35.625Z,11.00
2023-06-11T22:18:05.242Z,11.00
2023-06-11T22:20:33.544Z,11.10
2023-06-11T22:23:01.184Z,11.20
2023-06-11T22:25:28.114Z,11.10
2023-06-11T22:27:56.110Z,11.00
2023-06-11T22:30:23.068Z,11.10
2023-06-11T22:32:49.953Z,11.10
2023-06-11T22:35:16.984Z,11.10
2023-06-11T22:37:45.341Z,11.10
2023-06-11T22:40:12.785Z,11.10
2023-06-11T22:42:39.819Z,11.10
2023-06-11T22:45:07.222Z,11.10
2023-06-11T22:47:34.510Z,11.00
2023-06-11T22:50:01.563Z,11.00
2023-06-11T22:52:30.112Z,11.00
2023-06-11T22:54:57.455Z,11.00
2023-06-11T22:57:24.391Z,11.00
2023-06-11T22:59:52.164Z,11.00
2023-06-11T23:02:19.541Z,11.10
2023-06-11T23:04:46.529Z,11.10
2023-06-11T23:07:18.198Z,11.10
2023-06-11T23:09:45.948Z,11.10
2023-06-11T23:12:12.810Z,11.10
2023-06-11T23:14:39.961Z,11.10
2023-06-11T23:17:10.250Z,11.10
2023-06-11T23:19:38.814Z,11.20
2023-06-11T23:22:08.866Z,11.10
2023-06-11T23:24:40.552Z,11.10
2023-06-11T23:27:08.157Z,11.30
2023-06-11T23:29:35.984Z,11.30
2023-06-11T23:32:03.764Z,11.20
2023-06-11T23:34:31.366Z,11.20
2023-06-11T23:36:58.399Z,11.20
2023-06-11T23:39:27.555Z,11.20
2023-06-11T23:41:54.384Z,11.20
2023-06-11T23:44:21.334Z,11.20
2023-06-11T23:46:48.466Z,11.20
2023-06-11T23:49:15.627Z,11.10
2023-06-11T23:51:42.631Z,11.10
2023-06-11T23:54:09.422Z,11.10
2023-06-11T23:56:36.217Z,11.20
2023-06-11T23:59:03.230Z,11.20
